sensor_id;sensor_type;location;lat;lon;timestamp;pressure;altitude;pressure_sealevel;temperature;humidity
54854;BME280;40747;49.480;8.658;2022-07-18T00:01:30;101024.72;;;20.05;46.55
54854;BME280;40747;49.480;8.658;2022-07-18T00:03:56;101004.88;;;20.09;47.03
54854;BME280;40747;49.480;8.658;2022-07-18T00:06:21;101015.38;;;20.12;46.02
54854;BME280;40747;49.480;8.658;2022-07-18T00:08:47;101011.84;;;20.12;45.18
54854;BME280;40747;49.480;8.658;2022-07-18T00:11:12;101021.88;;;20.08;44.96
54854;BME280;40747;49.480;8.658;2022-07-18T00:13:37;101028.88;;;19.79;46.66
54854;BME280;40747;49.480;8.658;2022-07-18T00:16:03;101031.34;;;19.84;46.47
54854;BME280;40747;49.480;8.658;2022-07-18T00:18:29;101038.47;;;19.83;46.94
54854;BME280;40747;49.480;8.658;2022-07-18T00:20:54;101020.47;;;19.87;47.24
54854;BME280;40747;49.480;8.658;2022-07-18T00:23:19;101032.81;;;20.04;46.71
54854;BME280;40747;49.480;8.658;2022-07-18T00:25:44;101036.28;;;20.06;46.63
54854;BME280;40747;49.480;8.658;2022-07-18T00:28:10;101031.13;;;20.03;45.39
54854;BME280;40747;49.480;8.658;2022-07-18T00:30:37;101027.88;;;19.97;46.11
54854;BME280;40747;49.480;8.658;2022-07-18T00:33:02;101029.56;;;19.98;45.26
54854;BME280;40747;49.480;8.658;2022-07-18T00:35:28;101020.94;;;19.93;45.16
54854;BME280;40747;49.480;8.658;2022-07-18T00:37:53;101035.94;;;19.96;45.20
54854;BME280;40747;49.480;8.658;2022-07-18T00:40:18;101044.66;;;20.00;46.06
54854;BME280;40747;49.480;8.658;2022-07-18T00:42:44;101036.63;;;20.00;46.01
54854;BME280;40747;49.480;8.658;2022-07-18T00:45:10;101038.38;;;19.85;45.10
54854;BME280;40747;49.480;8.658;2022-07-18T00:47:35;101035.72;;;19.85;46.29
54854;BME280;40747;49.480;8.658;2022-07-18T00:50:01;101041.75;;;19.56;46.29
54854;BME280;40747;49.480;8.658;2022-07-18T00:52:28;101039.78;;;19.60;47.17
54854;BME280;40747;49.480;8.658;2022-07-18T00:54:54;101038.53;;;19.81;49.03
54854;BME280;40747;49.480;8.658;2022-07-18T00:57:19;101036.50;;;19.87;46.85
54854;BME280;40747;49.480;8.658;2022-07-18T00:59:45;101032.09;;;19.86;45.27
54854;BME280;40747;49.480;8.658;2022-07-18T01:02:29;101021.50;;;19.84;45.41
54854;BME280;40747;49.480;8.658;2022-07-18T01:04:54;101032.69;;;19.75;46.96
54854;BME280;40747;49.480;8.658;2022-07-18T01:07:19;101030.97;;;19.74;47.16
54854;BME280;40747;49.480;8.658;2022-07-18T01:09:45;101018.91;;;19.67;46.83
54854;BME280;40747;49.480;8.658;2022-07-18T01:12:11;101031.75;;;19.76;45.95
54854;BME280;40747;49.480;8.658;2022-07-18T01:14:36;101036.31;;;19.74;45.68
54854;BME280;40747;49.480;8.658;2022-07-18T01:17:02;101035.38;;;19.75;45.74
54854;BME280;40747;49.480;8.658;2022-07-18T01:19:27;101028.25;;;19.59;46.17
54854;BME280;40747;49.480;8.658;2022-07-18T01:21:53;101030.31;;;19.54;46.29
54854;BME280;40747;49.480;8.658;2022-07-18T01:24:18;101025.81;;;19.55;45.98
54854;BME280;40747;49.480;8.658;2022-07-18T01:26:44;101023.25;;;19.53;46.29
54854;BME280;40747;49.480;8.658;2022-07-18T01:29:09;101022.81;;;19.45;45.85
54854;BME280;40747;49.480;8.658;2022-07-18T01:31:35;101032.03;;;19.39;45.91
54854;BME280;40747;49.480;8.658;2022-07-18T01:34:00;101016.09;;;19.38;47.15
54854;BME280;40747;49.480;8.658;2022-07-18T01:36:26;101035.41;;;19.43;48.22
54854;BME280;40747;49.480;8.658;2022-07-18T01:38:51;101037.38;;;19.23;49.24
54854;BME280;40747;49.480;8.658;2022-07-18T01:41:16;101044.78;;;19.18;47.98
54854;BME280;40747;49.480;8.658;2022-07-18T01:43:42;101042.19;;;19.16;48.94
54854;BME280;40747;49.480;8.658;2022-07-18T01:46:11;101038.34;;;19.22;48.22
54854;BME280;40747;49.480;8.658;2022-07-18T01:48:37;101040.75;;;19.27;48.72
54854;BME280;40747;49.480;8.658;2022-07-18T01:51:04;101047.66;;;19.31;47.96
54854;BME280;40747;49.480;8.658;2022-07-18T01:53:29;101047.72;;;19.29;47.96
54854;BME280;40747;49.480;8.658;2022-07-18T01:55:54;101038.94;;;19.27;47.82
54854;BME280;40747;49.480;8.658;2022-07-18T01:58:20;101047.53;;;19.16;49.18
54854;BME280;40747;49.480;8.658;2022-07-18T02:00:45;101030.22;;;19.08;48.66
54854;BME280;40747;49.480;8.658;2022-07-18T02:03:11;101043.13;;;19.15;49.80
54854;BME280;40747;49.480;8.658;2022-07-18T02:05:36;101036.25;;;19.11;48.92
54854;BME280;40747;49.480;8.658;2022-07-18T02:08:01;101039.09;;;19.08;49.29
54854;BME280;40747;49.480;8.658;2022-07-18T02:10:27;101035.53;;;18.92;48.15
54854;BME280;40747;49.480;8.658;2022-07-18T02:12:52;101002.00;;;18.53;48.44
54854;BME280;40747;49.480;8.658;2022-07-18T02:15:17;101034.19;;;18.67;48.83
54854;BME280;40747;49.480;8.658;2022-07-18T02:17:43;101027.84;;;18.52;48.67
54854;BME280;40747;49.480;8.658;2022-07-18T02:20:11;101039.75;;;18.62;48.95
54854;BME280;40747;49.480;8.658;2022-07-18T02:22:36;101024.16;;;18.55;48.36
54854;BME280;40747;49.480;8.658;2022-07-18T02:25:03;101038.88;;;18.62;48.52
54854;BME280;40747;49.480;8.658;2022-07-18T02:27:28;101031.25;;;18.72;48.14
54854;BME280;40747;49.480;8.658;2022-07-18T02:29:54;101031.34;;;18.70;48.02
54854;BME280;40747;49.480;8.658;2022-07-18T02:32:19;101024.16;;;18.55;47.96
54854;BME280;40747;49.480;8.658;2022-07-18T02:34:45;101031.66;;;18.64;47.60
54854;BME280;40747;49.480;8.658;2022-07-18T02:37:12;101008.13;;;18.55;48.05
54854;BME280;40747;49.480;8.658;2022-07-18T02:39:37;101029.59;;;18.69;47.91
54854;BME280;40747;49.480;8.658;2022-07-18T02:42:03;101030.34;;;18.55;47.20
54854;BME280;40747;49.480;8.658;2022-07-18T02:44:29;101030.34;;;18.55;47.50
54854;BME280;40747;49.480;8.658;2022-07-18T02:46:54;101015.44;;;18.51;48.82
54854;BME280;40747;49.480;8.658;2022-07-18T02:49:19;101023.13;;;18.57;49.24
54854;BME280;40747;49.480;8.658;2022-07-18T02:51:59;101029.81;;;18.48;50.18
54854;BME280;40747;49.480;8.658;2022-07-18T02:54:25;101025.16;;;18.52;48.58
54854;BME280;40747;49.480;8.658;2022-07-18T02:56:51;101025.09;;;18.36;48.45
54854;BME280;40747;49.480;8.658;2022-07-18T02:59:16;101030.69;;;18.14;50.54
54854;BME280;40747;49.480;8.658;2022-07-18T03:01:42;101022.53;;;18.17;51.44
54854;BME280;40747;49.480;8.658;2022-07-18T03:04:08;101023.22;;;18.21;52.14
54854;BME280;40747;49.480;8.658;2022-07-18T03:06:34;100989.69;;;17.99;52.63
54854;BME280;40747;49.480;8.658;2022-07-18T03:08:59;101024.34;;;18.16;52.86
54854;BME280;40747;49.480;8.658;2022-07-18T03:11:24;101027.19;;;18.13;51.39
54854;BME280;40747;49.480;8.658;2022-07-18T03:13:50;101026.84;;;18.20;50.56
54854;BME280;40747;49.480;8.658;2022-07-18T03:16:15;101025.44;;;18.12;50.90
54854;BME280;40747;49.480;8.658;2022-07-18T03:18:40;101029.22;;;18.08;50.40
54854;BME280;40747;49.480;8.658;2022-07-18T03:21:06;101023.25;;;18.03;51.21
54854;BME280;40747;49.480;8.658;2022-07-18T03:23:31;101024.59;;;17.93;49.98
54854;BME280;40747;49.480;8.658;2022-07-18T03:25:56;101020.19;;;17.93;50.52
54854;BME280;40747;49.480;8.658;2022-07-18T03:28:22;101009.97;;;17.84;51.51
54854;BME280;40747;49.480;8.658;2022-07-18T03:30:47;101013.78;;;17.78;50.50
54854;BME280;40747;49.480;8.658;2022-07-18T03:33:12;101013.47;;;17.84;50.28
54854;BME280;40747;49.480;8.658;2022-07-18T03:35:38;101017.06;;;17.83;50.33
54854;BME280;40747;49.480;8.658;2022-07-18T03:38:03;101021.25;;;17.89;50.36
54854;BME280;40747;49.480;8.658;2022-07-18T03:40:28;101023.28;;;17.84;51.84
54854;BME280;40747;49.480;8.658;2022-07-18T03:42:53;101020.13;;;17.76;52.08
54854;BME280;40747;49.480;8.658;2022-07-18T03:45:19;101020.41;;;17.69;52.25
54854;BME280;40747;49.480;8.658;2022-07-18T03:47:44;101030.78;;;17.76;52.34
54854;BME280;40747;49.480;8.658;2022-07-18T03:50:10;101037.13;;;17.73;52.77
54854;BME280;40747;49.480;8.658;2022-07-18T03:52:35;101045.13;;;17.73;53.82
54854;BME280;40747;49.480;8.658;2022-07-18T03:55:01;101045.19;;;17.72;54.11
54854;BME280;40747;49.480;8.658;2022-07-18T03:57:27;101049.13;;;17.45;53.21
54854;BME280;40747;49.480;8.658;2022-07-18T03:59:52;101041.13;;;17.45;53.13
54854;BME280;40747;49.480;8.658;2022-07-18T04:02:18;101043.13;;;17.59;54.19
54854;BME280;40747;49.480;8.658;2022-07-18T04:04:43;101033.03;;;17.66;54.73
54854;BME280;40747;49.480;8.658;2022-07-18T04:07:08;101033.91;;;17.66;55.62
54854;BME280;40747;49.480;8.658;2022-07-18T04:09:33;101034.38;;;17.57;56.64
54854;BME280;40747;49.480;8.658;2022-07-18T04:11:59;101045.72;;;17.61;56.36
54854;BME280;40747;49.480;8.658;2022-07-18T04:14:24;101047.59;;;17.59;53.90
54854;BME280;40747;49.480;8.658;2022-07-18T04:16:49;101049.00;;;17.66;54.78
54854;BME280;40747;49.480;8.658;2022-07-18T04:19:15;101046.34;;;17.66;55.23
54854;BME280;40747;49.480;8.658;2022-07-18T04:21:42;101040.25;;;17.64;55.41
54854;BME280;40747;49.480;8.658;2022-07-18T04:24:07;101040.00;;;17.68;55.03
54854;BME280;40747;49.480;8.658;2022-07-18T04:26:32;101050.16;;;17.79;57.26
54854;BME280;40747;49.480;8.658;2022-07-18T04:28:58;101055.63;;;17.76;56.19
54854;BME280;40747;49.480;8.658;2022-07-18T04:31:23;101051.75;;;17.28;57.43
54854;BME280;40747;49.480;8.658;2022-07-18T04:33:48;101055.13;;;17.12;57.48
54854;BME280;40747;49.480;8.658;2022-07-18T04:36:14;101061.31;;;17.32;58.19
54854;BME280;40747;49.480;8.658;2022-07-18T04:38:39;101048.75;;;17.34;57.71
54854;BME280;40747;49.480;8.658;2022-07-18T04:41:05;101058.91;;;17.45;57.71
54854;BME280;40747;49.480;8.658;2022-07-18T04:43:31;101060.41;;;17.50;58.28
54854;BME280;40747;49.480;8.658;2022-07-18T04:45:56;101048.53;;;17.58;59.08
54854;BME280;40747;49.480;8.658;2022-07-18T04:48:22;101058.09;;;17.62;58.57
54854;BME280;40747;49.480;8.658;2022-07-18T04:50:47;101049.00;;;17.66;58.51
54854;BME280;40747;49.480;8.658;2022-07-18T04:53:12;101052.34;;;17.71;56.36
54854;BME280;40747;49.480;8.658;2022-07-18T04:55:38;101037.13;;;17.73;55.34
54854;BME280;40747;49.480;8.658;2022-07-18T04:58:03;101048.41;;;17.78;55.34
54854;BME280;40747;49.480;8.658;2022-07-18T05:00:29;101054.47;;;17.82;54.76
54854;BME280;40747;49.480;8.658;2022-07-18T05:02:55;101061.75;;;17.78;54.99
54854;BME280;40747;49.480;8.658;2022-07-18T05:05:22;101063.88;;;17.89;54.90
54854;BME280;40747;49.480;8.658;2022-07-18T05:07:49;101059.16;;;17.96;54.95
54854;BME280;40747;49.480;8.658;2022-07-18T05:10:16;101056.41;;;17.97;54.78
54854;BME280;40747;49.480;8.658;2022-07-18T05:12:43;101063.00;;;18.08;54.95
54854;BME280;40747;49.480;8.658;2022-07-18T05:15:11;101054.28;;;18.22;55.03
54854;BME280;40747;49.480;8.658;2022-07-18T05:17:37;101057.28;;;18.33;54.96
54854;BME280;40747;49.480;8.658;2022-07-18T05:20:04;101062.22;;;18.41;56.35
54854;BME280;40747;49.480;8.658;2022-07-18T05:22:32;101067.84;;;18.52;55.24
54854;BME280;40747;49.480;8.658;2022-07-18T05:24:57;101071.22;;;18.56;55.22
54854;BME280;40747;49.480;8.658;2022-07-18T05:27:22;101078.13;;;18.60;54.95
54854;BME280;40747;49.480;8.658;2022-07-18T05:29:48;101080.38;;;18.67;55.00
54854;BME280;40747;49.480;8.658;2022-07-18T05:32:13;101068.69;;;18.70;54.99
54854;BME280;40747;49.480;8.658;2022-07-18T05:34:38;101068.88;;;18.67;55.39
54854;BME280;40747;49.480;8.658;2022-07-18T05:37:04;101060.84;;;18.67;55.86
54854;BME280;40747;49.480;8.658;2022-07-18T05:39:29;101073.63;;;18.78;56.07
54854;BME280;40747;49.480;8.658;2022-07-18T05:41:54;101058.41;;;18.80;55.60
54854;BME280;40747;49.480;8.658;2022-07-18T05:44:20;101064.91;;;18.92;55.44
54854;BME280;40747;49.480;8.658;2022-07-18T05:46:46;101075.97;;;19.02;55.88
54854;BME280;40747;49.480;8.658;2022-07-18T05:49:12;101074.44;;;19.13;55.01
54854;BME280;40747;49.480;8.658;2022-07-18T05:51:37;101070.72;;;19.16;54.68
54854;BME280;40747;49.480;8.658;2022-07-18T05:54:03;101072.34;;;19.19;54.50
54854;BME280;40747;49.480;8.658;2022-07-18T05:56:28;101068.56;;;19.23;55.23
54854;BME280;40747;49.480;8.658;2022-07-18T05:58:53;101060.81;;;19.34;55.17
54854;BME280;40747;49.480;8.658;2022-07-18T06:01:19;101061.84;;;19.47;55.17
54854;BME280;40747;49.480;8.658;2022-07-18T06:03:46;101048.94;;;19.56;54.73
54854;BME280;40747;49.480;8.658;2022-07-18T06:06:12;101053.75;;;19.65;54.11
54854;BME280;40747;49.480;8.658;2022-07-18T06:08:37;101054.00;;;19.76;53.46
54854;BME280;40747;49.480;8.658;2022-07-18T06:11:03;101041.41;;;19.78;54.02
54854;BME280;40747;49.480;8.658;2022-07-18T06:13:29;101049.41;;;19.94;54.27
54854;BME280;40747;49.480;8.658;2022-07-18T06:15:55;101055.84;;;20.06;53.01
54854;BME280;40747;49.480;8.658;2022-07-18T06:18:20;101051.41;;;20.21;53.02
54854;BME280;40747;49.480;8.658;2022-07-18T06:20:45;101045.22;;;20.21;52.84
54854;BME280;40747;49.480;8.658;2022-07-18T06:23:11;101050.19;;;20.27;52.54
54854;BME280;40747;49.480;8.658;2022-07-18T06:25:36;101054.31;;;20.47;52.52
54854;BME280;40747;49.480;8.658;2022-07-18T06:28:01;101053.47;;;20.61;52.04
54854;BME280;40747;49.480;8.658;2022-07-18T06:30:27;101052.41;;;20.79;51.83
54854;BME280;40747;49.480;8.658;2022-07-18T06:32:52;101054.50;;;20.74;51.53
54854;BME280;40747;49.480;8.658;2022-07-18T06:35:17;101052.09;;;20.84;51.83
54854;BME280;40747;49.480;8.658;2022-07-18T06:37:43;101046.53;;;21.02;51.80
54854;BME280;40747;49.480;8.658;2022-07-18T06:40:09;101034.41;;;20.82;51.81
54854;BME280;40747;49.480;8.658;2022-07-18T06:42:35;101054.28;;;20.92;51.66
54854;BME280;40747;49.480;8.658;2022-07-18T06:45:00;101052.50;;;20.92;51.95
54854;BME280;40747;49.480;8.658;2022-07-18T06:47:25;101055.53;;;21.01;51.74
54854;BME280;40747;49.480;8.658;2022-07-18T06:49:50;101046.94;;;20.95;52.39
54854;BME280;40747;49.480;8.658;2022-07-18T06:52:16;101038.94;;;20.65;51.88
54854;BME280;40747;49.480;8.658;2022-07-18T06:54:41;101055.81;;;20.82;52.24
54854;BME280;40747;49.480;8.658;2022-07-18T06:57:07;101049.50;;;20.97;52.04
54854;BME280;40747;49.480;8.658;2022-07-18T06:59:34;101044.81;;;21.01;51.88
54854;BME280;40747;49.480;8.658;2022-07-18T07:01:59;101048.44;;;21.14;51.31
54854;BME280;40747;49.480;8.658;2022-07-18T07:04:25;101055.06;;;20.94;51.36
54854;BME280;40747;49.480;8.658;2022-07-18T07:06:50;101051.59;;;21.21;50.74
54854;BME280;40747;49.480;8.658;2022-07-18T07:09:15;101056.50;;;21.14;48.91
54854;BME280;40747;49.480;8.658;2022-07-18T07:11:41;101054.84;;;21.26;48.59
54854;BME280;40747;49.480;8.658;2022-07-18T07:14:06;101057.03;;;21.34;49.13
54854;BME280;40747;49.480;8.658;2022-07-18T07:16:31;101056.59;;;21.13;49.80
54854;BME280;40747;49.480;8.658;2022-07-18T07:18:56;101052.88;;;21.42;49.71
54854;BME280;40747;49.480;8.658;2022-07-18T07:21:22;101053.69;;;21.72;48.25
54854;BME280;40747;49.480;8.658;2022-07-18T07:23:47;101051.28;;;21.82;49.44
54854;BME280;40747;49.480;8.658;2022-07-18T07:26:12;101050.66;;;21.91;48.88
54854;BME280;40747;49.480;8.658;2022-07-18T07:28:38;101047.34;;;22.00;47.58
54854;BME280;40747;49.480;8.658;2022-07-18T07:31:03;101044.50;;;22.16;48.00
54854;BME280;40747;49.480;8.658;2022-07-18T07:33:28;101044.28;;;22.32;47.38
54854;BME280;40747;49.480;8.658;2022-07-18T07:35:53;101030.47;;;22.64;46.68
54854;BME280;40747;49.480;8.658;2022-07-18T07:38:19;101041.38;;;23.13;47.19
54854;BME280;40747;49.480;8.658;2022-07-18T07:40:47;101040.56;;;23.49;45.40
54854;BME280;40747;49.480;8.658;2022-07-18T07:43:14;101038.66;;;23.87;44.26
54854;BME280;40747;49.480;8.658;2022-07-18T07:45:40;101029.22;;;24.17;43.56
54854;BME280;40747;49.480;8.658;2022-07-18T07:48:06;101024.31;;;23.99;44.91
54854;BME280;40747;49.480;8.658;2022-07-18T07:50:32;101033.06;;;24.37;43.77
54854;BME280;40747;49.480;8.658;2022-07-18T07:52:59;101035.28;;;24.43;43.57
54854;BME280;40747;49.480;8.658;2022-07-18T07:55:24;101011.72;;;24.92;41.81
54854;BME280;40747;49.480;8.658;2022-07-18T07:57:50;101030.44;;;25.05;42.54
54854;BME280;40747;49.480;8.658;2022-07-18T08:00:16;101024.16;;;25.50;41.89
54854;BME280;40747;49.480;8.658;2022-07-18T08:03:04;101026.16;;;25.69;41.89
54854;BME280;40747;49.480;8.658;2022-07-18T08:05:35;101020.00;;;25.99;41.83
54854;BME280;40747;49.480;8.658;2022-07-18T08:08:02;101019.19;;;26.20;41.20
54854;BME280;40747;49.480;8.658;2022-07-18T08:10:28;101016.81;;;26.06;41.68
54854;BME280;40747;49.480;8.658;2022-07-18T08:12:54;101022.97;;;26.08;41.67
54854;BME280;40747;49.480;8.658;2022-07-18T08:15:19;101013.84;;;26.30;41.28
54854;BME280;40747;49.480;8.658;2022-07-18T08:17:45;101013.53;;;27.16;40.89
54854;BME280;40747;49.480;8.658;2022-07-18T08:20:10;101009.22;;;27.54;40.02
54854;BME280;40747;49.480;8.658;2022-07-18T08:23:11;101011.19;;;27.91;38.85
54854;BME280;40747;49.480;8.658;2022-07-18T08:25:38;101005.38;;;27.86;38.87
54854;BME280;40747;49.480;8.658;2022-07-18T08:28:05;100998.56;;;28.49;37.49
54854;BME280;40747;49.480;8.658;2022-07-18T08:30:31;100995.22;;;29.03;36.99
54854;BME280;40747;49.480;8.658;2022-07-18T08:32:57;101001.66;;;29.02;36.89
54854;BME280;40747;49.480;8.658;2022-07-18T08:35:24;100995.47;;;29.09;36.32
54854;BME280;40747;49.480;8.658;2022-07-18T08:37:49;100992.09;;;28.98;35.75
54854;BME280;40747;49.480;8.658;2022-07-18T08:40:15;100991.44;;;29.41;35.90
54854;BME280;40747;49.480;8.658;2022-07-18T08:42:40;100985.69;;;28.99;35.54
54854;BME280;40747;49.480;8.658;2022-07-18T08:45:06;100986.16;;;29.76;36.38
54854;BME280;40747;49.480;8.658;2022-07-18T08:47:33;100976.56;;;30.34;34.26
54854;BME280;40747;49.480;8.658;2022-07-18T08:49:59;100974.75;;;30.69;33.77
54854;BME280;40747;49.480;8.658;2022-07-18T08:52:26;100978.50;;;31.28;33.02
54854;BME280;40747;49.480;8.658;2022-07-18T08:54:52;100966.47;;;32.05;32.34
54854;BME280;40747;49.480;8.658;2022-07-18T08:57:17;100961.44;;;32.49;31.48
54854;BME280;40747;49.480;8.658;2022-07-18T08:59:43;100976.63;;;32.92;31.81
54854;BME280;40747;49.480;8.658;2022-07-18T09:02:08;100980.38;;;33.30;31.08
54854;BME280;40747;49.480;8.658;2022-07-18T09:04:40;100980.13;;;33.63;29.53
54854;BME280;40747;49.480;8.658;2022-07-18T09:07:06;100977.09;;;33.58;28.80
54854;BME280;40747;49.480;8.658;2022-07-18T09:09:37;100979.44;;;33.15;30.03
54854;BME280;40747;49.480;8.658;2022-07-18T09:12:06;100977.75;;;33.60;30.56
54854;BME280;40747;49.480;8.658;2022-07-18T09:14:41;100968.28;;;34.09;29.78
54854;BME280;40747;49.480;8.658;2022-07-18T09:17:14;100967.53;;;34.16;28.59
54854;BME280;40747;49.480;8.658;2022-07-18T09:20:27;100968.47;;;33.46;28.74
54854;BME280;40747;49.480;8.658;2022-07-18T09:22:30;100961.81;;;32.46;29.25
54854;BME280;40747;49.480;8.658;2022-07-18T09:27:31;100959.16;;;33.79;28.21
54854;BME280;40747;49.480;8.658;2022-07-18T09:30:14;100968.78;;;33.52;27.68
54854;BME280;40747;49.480;8.658;2022-07-18T09:32:45;100953.66;;;33.64;28.42
54854;BME280;40747;49.480;8.658;2022-07-18T09:35:13;100956.59;;;34.01;28.61
54854;BME280;40747;49.480;8.658;2022-07-18T09:37:39;100960.53;;;33.83;28.50
54854;BME280;40747;49.480;8.658;2022-07-18T09:40:15;100952.06;;;34.08;28.13
54854;BME280;40747;49.480;8.658;2022-07-18T09:42:41;100953.47;;;34.78;27.76
54854;BME280;40747;49.480;8.658;2022-07-18T09:45:06;100938.97;;;34.93;27.66
54854;BME280;40747;49.480;8.658;2022-07-18T09:47:48;100940.53;;;35.02;27.55
54854;BME280;40747;49.480;8.658;2022-07-18T09:53:01;100931.13;;;35.76;28.19
54854;BME280;40747;49.480;8.658;2022-07-18T09:55:27;100931.38;;;36.38;27.59
54854;BME280;40747;49.480;8.658;2022-07-18T09:58:04;100934.91;;;36.32;26.43
54854;BME280;40747;49.480;8.658;2022-07-18T10:00:31;100931.56;;;34.57;27.29
54854;BME280;40747;49.480;8.658;2022-07-18T10:02:58;100935.28;;;33.96;27.66
54854;BME280;40747;49.480;8.658;2022-07-18T10:05:26;100925.59;;;34.23;27.81
54854;BME280;40747;49.480;8.658;2022-07-18T10:07:52;100921.19;;;35.47;26.65
54854;BME280;40747;49.480;8.658;2022-07-18T10:10:18;100917.59;;;35.68;26.26
54854;BME280;40747;49.480;8.658;2022-07-18T10:12:44;100919.31;;;35.48;28.16
54854;BME280;40747;49.480;8.658;2022-07-18T10:15:10;100911.69;;;35.71;28.47
54854;BME280;40747;49.480;8.658;2022-07-18T10:17:36;100909.28;;;35.62;26.89
54854;BME280;40747;49.480;8.658;2022-07-18T10:20:05;100909.78;;;35.43;27.07
54854;BME280;40747;49.480;8.658;2022-07-18T10:22:35;100913.97;;;35.89;25.91
54854;BME280;40747;49.480;8.658;2022-07-18T10:25:05;100910.38;;;35.89;25.89
54854;BME280;40747;49.480;8.658;2022-07-18T10:30:13;100902.31;;;36.16;25.80
54854;BME280;40747;49.480;8.658;2022-07-18T10:32:40;100906.03;;;36.36;26.13
54854;BME280;40747;49.480;8.658;2022-07-18T10:35:07;100895.25;;;35.71;26.23
54854;BME280;40747;49.480;8.658;2022-07-18T10:37:33;100905.13;;;35.87;25.70
54854;BME280;40747;49.480;8.658;2022-07-18T10:40:27;100911.34;;;35.81;26.54
54854;BME280;40747;49.480;8.658;2022-07-18T10:43:30;100904.06;;;35.67;25.98
54854;BME280;40747;49.480;8.658;2022-07-18T10:45:57;100910.91;;;35.78;25.26
54854;BME280;40747;49.480;8.658;2022-07-18T10:51:01;100910.00;;;35.99;25.19
54854;BME280;40747;49.480;8.658;2022-07-18T10:56:18;100905.56;;;36.68;24.44
54854;BME280;40747;49.480;8.658;2022-07-18T10:58:44;100902.69;;;37.10;23.86
54854;BME280;40747;49.480;8.658;2022-07-18T11:01:16;100898.91;;;37.78;23.59
54854;BME280;40747;49.480;8.658;2022-07-18T11:03:41;100886.84;;;38.06;24.09
54854;BME280;40747;49.480;8.658;2022-07-18T11:06:07;100894.91;;;37.20;23.45
54854;BME280;40747;49.480;8.658;2022-07-18T11:08:32;100890.06;;;37.62;23.82
54854;BME280;40747;49.480;8.658;2022-07-18T11:16:06;100890.50;;;37.39;24.97
54854;BME280;40747;49.480;8.658;2022-07-18T11:24:05;100884.59;;;38.48;23.01
54854;BME280;40747;49.480;8.658;2022-07-18T11:26:35;100889.19;;;37.95;23.61
54854;BME280;40747;49.480;8.658;2022-07-18T11:29:07;100888.34;;;37.88;23.05
54854;BME280;40747;49.480;8.658;2022-07-18T11:34:08;100877.06;;;38.23;22.95
54854;BME280;40747;49.480;8.658;2022-07-18T11:36:33;100869.94;;;37.95;23.49
54854;BME280;40747;49.480;8.658;2022-07-18T11:39:01;100870.78;;;38.02;23.64
54854;BME280;40747;49.480;8.658;2022-07-18T11:41:27;100862.38;;;37.84;23.64
54854;BME280;40747;49.480;8.658;2022-07-18T11:43:53;100866.44;;;37.34;23.96
54854;BME280;40747;49.480;8.658;2022-07-18T11:46:21;100866.97;;;36.34;23.60
54854;BME280;40747;49.480;8.658;2022-07-18T11:49:08;100862.84;;;36.52;24.19
54854;BME280;40747;49.480;8.658;2022-07-18T11:51:42;100851.25;;;36.08;24.85
54854;BME280;40747;49.480;8.658;2022-07-18T11:54:08;100858.38;;;36.02;24.50
54854;BME280;40747;49.480;8.658;2022-07-18T11:56:48;100855.09;;;36.20;25.03
54854;BME280;40747;49.480;8.658;2022-07-18T11:59:14;100855.25;;;35.27;24.63
54854;BME280;40747;49.480;8.658;2022-07-18T12:01:41;100848.34;;;35.53;24.87
54854;BME280;40747;49.480;8.658;2022-07-18T12:04:06;100838.81;;;35.77;25.26
54854;BME280;40747;49.480;8.658;2022-07-18T12:06:32;100845.97;;;35.78;24.62
54854;BME280;40747;49.480;8.658;2022-07-18T12:08:58;100842.19;;;35.79;24.39
54854;BME280;40747;49.480;8.658;2022-07-18T12:11:34;100837.00;;;35.91;25.11
54854;BME280;40747;49.480;8.658;2022-07-18T12:14:01;100834.94;;;36.00;24.89
54854;BME280;40747;49.480;8.658;2022-07-18T12:16:29;100835.06;;;36.20;25.22
54854;BME280;40747;49.480;8.658;2022-07-18T12:19:04;100835.84;;;36.07;24.26
54854;BME280;40747;49.480;8.658;2022-07-18T12:21:41;100829.97;;;35.82;24.90
54854;BME280;40747;49.480;8.658;2022-07-18T12:24:32;100839.56;;;35.64;24.93
54854;BME280;40747;49.480;8.658;2022-07-18T12:29:55;100831.03;;;36.16;25.18
54854;BME280;40747;49.480;8.658;2022-07-18T12:32:29;100824.75;;;36.29;25.32
54854;BME280;40747;49.480;8.658;2022-07-18T12:35:04;100831.41;;;36.54;25.15
54854;BME280;40747;49.480;8.658;2022-07-18T12:37:30;100821.72;;;36.65;24.61
54854;BME280;40747;49.480;8.658;2022-07-18T12:40:01;100817.84;;;36.39;24.41
54854;BME280;40747;49.480;8.658;2022-07-18T12:42:34;100816.41;;;36.44;24.58
54854;BME280;40747;49.480;8.658;2022-07-18T12:45:01;100818.56;;;35.78;24.34
54854;BME280;40747;49.480;8.658;2022-07-18T12:47:27;100815.59;;;35.73;24.87
54854;BME280;40747;49.480;8.658;2022-07-18T12:49:52;100819.56;;;35.70;24.56
54854;BME280;40747;49.480;8.658;2022-07-18T12:52:19;100813.28;;;35.76;25.34
54854;BME280;40747;49.480;8.658;2022-07-18T12:54:45;100815.09;;;35.34;25.12
54854;BME280;40747;49.480;8.658;2022-07-18T12:57:10;100812.09;;;35.51;25.08
54854;BME280;40747;49.480;8.658;2022-07-18T12:59:36;100812.75;;;35.53;25.20
54854;BME280;40747;49.480;8.658;2022-07-18T13:02:02;100812.97;;;35.08;24.86
54854;BME280;40747;49.480;8.658;2022-07-18T13:04:28;100805.22;;;34.90;25.27
54854;BME280;40747;49.480;8.658;2022-07-18T13:06:53;100802.03;;;35.08;25.31
54854;BME280;40747;49.480;8.658;2022-07-18T13:09:18;100800.78;;;35.10;25.68
54854;BME280;40747;49.480;8.658;2022-07-18T13:11:43;100797.25;;;35.38;25.11
54854;BME280;40747;49.480;8.658;2022-07-18T13:14:12;100787.31;;;35.37;25.97
54854;BME280;40747;49.480;8.658;2022-07-18T13:16:38;100797.63;;;34.85;25.57
54854;BME280;40747;49.480;8.658;2022-07-18T13:19:03;100793.59;;;34.44;25.46